Terminal Aerodrome Forecast
Issued by NWS

Current Version | Previous Version | Text Only | Print | Product List | Glossary On
Versions: 1 2 3 4 5 6 7 8 9 10 11 12 13 14
000
FTUS42 TJSJ 282300 RRA
TAFJBQ
TAF
TJBQ 282343Z 2900/2924 12004KT P6SM SCT025 SCT050
     FM290600 12003KT P6SM SKC
     FM291400 06012KT P6SM VCSH SCT025
     FM292300 09008KT P6SM SCT030 SCT050
      AMD NOT SKED 2902/2911=

USA.gov is the U.S. government's official web portal to all federal, state and local government web resources and services.